createdAt,value
2019-02-04T00:00:17.259Z,2.11
2019-02-04T00:05:12.335Z,2.03
2019-02-04T00:10:11.660Z,2.13
2019-02-04T00:15:09.993Z,2.19
2019-02-04T00:20:07.698Z,2.13
2019-02-04T00:25:02.286Z,2.11
2019-02-04T00:29:56.886Z,2.08
2019-02-04T00:34:51.474Z,2.18
2019-02-04T00:39:46.073Z,2.28
2019-02-04T00:44:40.650Z,2.12
2019-02-04T00:49:35.259Z,1.99
2019-02-04T00:54:29.950Z,1.98
2019-02-04T00:59:24.559Z,1.95
2019-02-04T01:04:19.132Z,1.97
2019-02-04T01:09:15.036Z,2.04
2019-02-04T01:14:10.023Z,2.06
2019-02-04T01:19:04.772Z,2.08
2019-02-04T01:23:59.338Z,2.07
2019-02-04T01:28:53.956Z,1.89
2019-02-04T01:33:48.509Z,1.86
2019-02-04T01:38:43.107Z,1.84
2019-02-04T01:43:37.883Z,1.86
2019-02-04T01:48:32.480Z,1.97
2019-02-04T01:53:27.099Z,2.09
2019-02-04T01:58:21.683Z,2.08
2019-02-04T02:03:16.260Z,2.09
2019-02-04T02:08:10.850Z,1.85
2019-02-04T02:13:05.563Z,1.78
2019-02-04T02:18:00.389Z,1.72
2019-02-04T02:22:55.044Z,1.74
2019-02-04T02:27:49.717Z,1.68
2019-02-04T02:32:44.306Z,1.50
2019-02-04T02:37:38.903Z,1.26
2019-02-04T02:42:33.478Z,1.13
2019-02-04T02:47:38.178Z,0.92
2019-02-04T02:52:24.368Z,0.80
2019-02-04T02:57:19.080Z,0.73
2019-02-04T03:02:13.739Z,0.64
2019-02-04T03:07:08.347Z,0.45
2019-02-04T03:12:02.952Z,0.57
2019-02-04T03:16:57.559Z,0.41
2019-02-04T03:21:52.188Z,0.33
2019-02-04T03:26:46.787Z,0.29
2019-02-04T03:31:45.792Z,0.19
2019-02-04T03:36:37.691Z,0.05
2019-02-04T03:41:33.321Z,-0.10
2019-02-04T03:46:27.927Z,-0.24
2019-02-04T03:51:22.531Z,-0.35
2019-02-04T03:56:17.128Z,-0.36
2019-02-04T04:01:11.765Z,-0.51
2019-02-04T04:06:06.448Z,-0.69
2019-02-04T04:11:01.070Z,-0.73
2019-02-04T04:15:55.758Z,-0.88
2019-02-04T04:20:50.370Z,-0.89
2019-02-04T04:25:44.970Z,-0.84
2019-02-04T04:30:39.565Z,-0.78
2019-02-04T04:35:34.200Z,-0.76
2019-02-04T04:40:28.818Z,-0.96
2019-02-04T04:45:26.211Z,-0.94
2019-02-04T04:50:20.888Z,-0.53
2019-02-04T04:55:25.933Z,-0.46
2019-02-04T05:00:24.747Z,-0.34
2019-02-04T05:05:19.334Z,-0.47
2019-02-04T05:10:18.309Z,-0.45
2019-02-04T05:15:19.789Z,-0.23
2019-02-04T05:20:17.533Z,-0.10
2019-02-04T05:25:12.675Z,-0.08
2019-02-04T05:30:12.105Z,-0.07
2019-02-04T05:35:06.921Z,-0.31
2019-02-04T05:40:01.523Z,-0.52
2019-02-04T05:44:56.236Z,-0.54
2019-02-04T05:49:51.202Z,-0.53
2019-02-04T05:54:45.813Z,-0.53
2019-02-04T05:59:40.425Z,-0.60
2019-02-04T06:04:35.078Z,-0.61
2019-02-04T06:09:29.663Z,-0.49
2019-02-04T06:14:24.276Z,-0.43
2019-02-04T06:19:18.870Z,-0.46
2019-02-04T06:24:13.774Z,-0.41
2019-02-04T06:29:08.373Z,-0.32
2019-02-04T06:34:03.172Z,-0.18
2019-02-04T06:38:57.771Z,-0.19
2019-02-04T06:43:52.382Z,-0.09
2019-02-04T06:48:46.968Z,0.02
2019-02-04T06:53:41.919Z,0.04
2019-02-04T06:58:36.532Z,0.05
2019-02-04T07:03:31.239Z,0.07
2019-02-04T07:08:25.864Z,0.17
2019-02-04T07:13:20.484Z,0.24
2019-02-04T07:18:15.085Z,0.30
2019-02-04T07:23:09.662Z,0.28
2019-02-04T07:28:04.298Z,0.26
2019-02-04T07:32:59.252Z,0.13
2019-02-04T07:37:54.081Z,0.28
2019-02-04T07:42:50.008Z,0.03
2019-02-04T07:47:44.992Z,0.28
2019-02-04T07:52:40.150Z,0.35
2019-02-04T07:57:35.788Z,0.35
2019-02-04T08:02:30.445Z,0.16
2019-02-04T08:07:25.592Z,-0.02
2019-02-04T08:12:20.547Z,-0.13
2019-02-04T08:17:15.272Z,-0.02
2019-02-04T08:22:09.997Z,0.25
2019-02-04T08:27:06.214Z,0.45
2019-02-04T08:32:03.924Z,0.73
2019-02-04T08:36:59.238Z,0.99
2019-02-04T08:41:54.404Z,1.21
2019-02-04T08:47:02.410Z,1.35
2019-02-04T08:52:12.189Z,1.45
2019-02-04T08:57:06.888Z,1.27
2019-02-04T09:02:01.779Z,1.16
2019-02-04T09:07:28.759Z,1.10
2019-02-04T09:12:24.574Z,1.19
2019-02-04T09:17:20.285Z,0.91
2019-02-04T09:22:16.492Z,0.97
2019-02-04T09:27:12.245Z,1.12
2019-02-04T09:32:09.767Z,1.30
2019-02-04T09:37:05.759Z,1.53
2019-02-04T09:42:05.090Z,1.98
2019-02-04T09:47:01.544Z,2.34
2019-02-04T09:51:58.134Z,2.67
2019-02-04T09:56:54.061Z,2.84
2019-02-04T10:01:49.972Z,2.55
2019-02-04T10:06:46.250Z,2.59
2019-02-04T10:11:42.094Z,2.49
2019-02-04T10:16:38.067Z,2.57
2019-02-04T10:21:34.365Z,2.59
2019-02-04T10:26:30.779Z,2.66
2019-02-04T10:31:27.536Z,2.82
2019-02-04T10:36:24.503Z,3.04
2019-02-04T10:41:20.398Z,3.12
2019-02-04T10:46:16.108Z,3.07
2019-02-04T10:51:12.432Z,3.19
2019-02-04T10:56:09.199Z,3.43
2019-02-04T11:01:08.732Z,3.56
2019-02-04T11:06:04.798Z,3.62
2019-02-04T11:10:59.597Z,3.47
2019-02-04T11:15:54.387Z,3.36
2019-02-04T11:20:57.743Z,3.38
2019-02-04T11:25:46.008Z,3.73
2019-02-04T11:30:56.573Z,3.92
2019-02-04T11:35:51.341Z,4.15
2019-02-04T11:40:46.623Z,4.43
2019-02-04T11:45:41.365Z,4.51
2019-02-04T11:50:36.348Z,4.58
2019-02-04T11:55:31.359Z,4.26
2019-02-04T12:00:32.207Z,4.31
2019-02-04T12:05:28.049Z,3.81
2019-02-04T12:10:43.647Z,3.90
2019-02-04T12:15:45.385Z,3.93
2019-02-04T12:20:40.444Z,4.01
2019-02-04T12:25:35.193Z,3.86
2019-02-04T12:30:44.295Z,3.61
2019-02-04T12:35:40.514Z,3.28
2019-02-04T12:40:36.779Z,3.52
2019-02-04T12:45:42.432Z,3.60
2019-02-04T12:50:39.041Z,3.50
2019-02-04T12:55:37.911Z,3.56
2019-02-04T13:00:35.292Z,3.65
2019-02-04T13:05:48.858Z,4.01
2019-02-04T13:10:46.586Z,4.40
2019-02-04T13:15:44.244Z,4.18
2019-02-04T13:20:40.838Z,4.08
2019-02-04T13:25:41.935Z,4.43
2019-02-04T13:30:38.675Z,4.59
2019-02-04T13:35:35.591Z,4.56
2019-02-04T13:40:32.611Z,4.76
2019-02-04T13:45:34.065Z,4.36
2019-02-04T13:50:30.520Z,4.52
2019-02-04T13:55:40.870Z,4.44
2019-02-04T14:00:39.051Z,4.66
2019-02-04T14:05:35.773Z,4.59
2019-02-04T14:10:39.063Z,4.71
2019-02-04T14:15:35.613Z,4.66
2019-02-04T14:20:34.522Z,4.80
2019-02-04T14:25:29.611Z,4.93
2019-02-04T14:30:37.525Z,4.83
2019-02-04T14:35:35.622Z,4.38
2019-02-04T14:40:31.054Z,4.66
2019-02-04T14:46:17.438Z,4.34
2019-02-04T14:51:52.754Z,4.28
2019-02-04T14:57:38.882Z,4.09
2019-02-04T15:02:49.370Z,4.03
2019-02-04T15:08:33.465Z,3.75
2019-02-04T15:14:14.314Z,3.59
2019-02-04T15:19:40.523Z,3.46
2019-02-04T15:25:25.323Z,3.09
2019-02-04T15:30:33.600Z,2.96
2019-02-04T15:35:56.675Z,3.14
2019-02-04T15:41:07.045Z,3.18
2019-02-04T15:46:18.392Z,3.25
2019-02-04T15:51:23.411Z,3.32
2019-02-04T15:56:18.483Z,3.19
2019-02-04T16:01:13.131Z,3.16
2019-02-04T16:06:07.725Z,2.99
2019-02-04T16:11:02.403Z,2.92
2019-02-04T16:15:57.859Z,2.64
2019-02-04T16:20:52.883Z,2.60
2019-02-04T16:25:47.591Z,2.59
2019-02-04T16:30:42.352Z,2.56
2019-02-04T16:35:36.951Z,2.41
2019-02-04T16:40:31.591Z,2.42
2019-02-04T16:45:26.484Z,2.40
2019-02-04T16:50:26.467Z,2.44
2019-02-04T16:55:21.340Z,2.20
2019-02-04T17:00:26.065Z,2.33
2019-02-04T17:05:22.461Z,2.03
2019-02-04T17:10:20.874Z,2.18
2019-02-04T17:15:15.785Z,2.05
2019-02-04T17:20:17.861Z,2.07
2019-02-04T17:25:12.571Z,2.14
2019-02-04T17:30:14.659Z,2.24
2019-02-04T17:35:09.659Z,2.20
2019-02-04T17:40:06.726Z,2.27
2019-02-04T17:45:01.313Z,2.31
2019-02-04T17:49:56.299Z,2.42
2019-02-04T17:54:50.944Z,2.51
2019-02-04T17:59:45.577Z,2.52
2019-02-04T18:04:40.263Z,2.65
2019-02-04T18:09:34.880Z,2.52
2019-02-04T18:14:29.496Z,2.37
2019-02-04T18:19:24.254Z,2.29
2019-02-04T18:24:18.846Z,2.24
2019-02-04T18:29:13.444Z,2.36
2019-02-04T18:34:08.139Z,2.31
2019-02-04T18:39:02.732Z,2.10
2019-02-04T18:43:57.317Z,2.32
2019-02-04T18:48:52.394Z,2.31
2019-02-04T18:53:57.353Z,2.23
2019-02-04T18:58:43.309Z,2.27
2019-02-04T19:03:38.002Z,2.30
2019-02-04T19:08:32.598Z,2.38
2019-02-04T19:13:35.843Z,2.45
2019-02-04T19:18:23.662Z,2.34
2019-02-04T19:23:18.252Z,2.43
2019-02-04T19:28:12.880Z,2.52
2019-02-04T19:33:07.623Z,2.50
2019-02-04T19:38:02.237Z,2.54
2019-02-04T19:42:56.895Z,2.77
2019-02-04T19:47:51.607Z,2.66
2019-02-04T19:52:46.230Z,2.64
2019-02-04T19:57:43.876Z,2.42
2019-02-04T20:02:37.261Z,2.30
2019-02-04T20:07:32.244Z,2.45
2019-02-04T20:12:26.846Z,2.35
2019-02-04T20:17:21.435Z,2.24
2019-02-04T20:22:16.033Z,2.22
2019-02-04T20:27:10.637Z,2.18
2019-02-04T20:32:05.398Z,2.31
2019-02-04T20:36:59.970Z,2.36
2019-02-04T20:41:54.563Z,2.42
2019-02-04T20:46:49.157Z,2.39
2019-02-04T20:51:43.763Z,2.40
2019-02-04T20:56:38.426Z,2.40
2019-02-04T21:01:33.741Z,2.45
2019-02-04T21:06:28.346Z,2.35
2019-02-04T21:11:22.950Z,2.46
2019-02-04T21:16:17.662Z,2.23
2019-02-04T21:21:12.239Z,2.22
2019-02-04T21:26:07.165Z,2.20
2019-02-04T21:31:01.865Z,2.29
2019-02-04T21:35:56.526Z,2.31
2019-02-04T21:40:51.186Z,2.31
2019-02-04T21:45:45.870Z,2.24
2019-02-04T21:50:40.614Z,2.24
2019-02-04T21:55:35.690Z,2.15
2019-02-04T22:00:34.174Z,2.18
2019-02-04T22:05:35.251Z,2.21
2019-02-04T22:10:31.823Z,2.09
2019-02-04T22:15:26.525Z,2.00
2019-02-04T22:20:22.331Z,1.97
2019-02-04T22:25:26.117Z,2.04
2019-02-04T22:30:27.151Z,2.02
2019-02-04T22:35:21.776Z,2.00
2019-02-04T22:40:25.488Z,1.91
2019-02-04T22:45:20.893Z,1.82
2019-02-04T22:50:28.376Z,1.85
2019-02-04T22:55:31.725Z,1.91
2019-02-04T23:00:29.805Z,1.79
2019-02-04T23:05:24.526Z,1.70
2019-02-04T23:10:19.394Z,1.61
2019-02-04T23:15:14.210Z,1.63
2019-02-04T23:20:10.333Z,1.66
2019-02-04T23:25:07.144Z,1.69
2019-02-04T23:30:01.727Z,1.65
2019-02-04T23:34:56.348Z,1.75
2019-02-04T23:39:50.943Z,1.58
2019-02-04T23:44:45.534Z,1.36
2019-02-04T23:49:40.122Z,1.29
2019-02-04T23:54:34.719Z,1.32
2019-02-04T23:59:29.313Z,1.25
